カンゲルルススアーク の空港の天気 - METARとTAF

カンゲルルススアーク空港 ( BGSF / SFJ ) - グリーンランド カンゲルルススアーク
飛行場実況気象(Metar)
観測時間08/22 13:50 WGST (08/22 15:50 UTC)
風向・風速南西 4m/s
視程10km以上
天気現象周辺でしゅう雨
少しの雲 雲底高度 610m
全天の4割程度の雲 雲底高度 910m
気温10℃
湿度66%
気圧1014hPa
METARBGSF 221550Z 23008KT 9999 VCSH FEW020 SCT030 10/04 Q1014
過去の天気等 Google飛行場航空写真 Wunderground天気予報

過去48時間のMETAR

飛行場予報(TAF)
発表時間: 8/22 14:04 WGST (8/22 16:04 UTC)
予報対象時間: 22日14時 WGST ~ 23日16時 WGST
風向・風速不定 4m/s
視程10km以上
全天の4割程度の雲 雲底高度 910m
22日14時 WGST ~ 22日22時 WGST に一時的に
天気現象弱いしゅう雨
全天の8割程度の雲 雲底高度 760m
22日22時 WGST ~ 23日9時 WGST に一時的に
全天の8割程度の雲 雲底高度 910m
23日9時 WGST ~ 23日16時 WGST に一時的に
全天の8割程度の雲 雲底高度 1520m
TAF AMD BGSF 221604Z 2216/2318 VRB08KT 9999 SCT030
TEMPO 2216/2224 -SHRA BKN025
TEMPO 2300/2311 BKN030
TEMPO 2311/2318 BKN050